KLUL/LUL METAR and TAF weather

Enter ICAO airport designator
Station Type Date Time Source
KLUL METAR 2022/06/27 17:35 UTC NOAA

KLUL 271735Z AUTO 02005KT 10SM BKN043 BKN100 32/21 A3009 RMK A02 T03240207


Station Type Date Time Source
KLUL Decoded METAR 2022/06/27 17:35 UTC NOAA

Station name not available
Jun 27, 2022 - 01:35 PM EDT / 2022.06.27 1735 UTC
Wind: from the NNE (020 degrees) at 6 MPH (5 KT):0
Visibility: 10 mile(s):0
Sky conditions: mostly cloudy
Temperature: 90.3 F (32.4 C)
Heat index: 95.2 F (35.1 C):1
Dew Point: 69.3 F (20.7 C)
Relative Humidity: 50%
Pressure (altimeter): 30.09 in. Hg (1018 hPa)
ob: KLUL 271735Z AUTO 02005KT 10SM BKN043 BKN100 32/21 A3009 RMK A02 T03240207
cycle: 17

Station Type Date Time Source
KLUL TAF UTC NOAA

Error!

Example: see airport list